Terminal Aerodrome Forecast
Issued by NWS

Current Version | Previous Version | Text Only | Print | Product List | Glossary Off
Versions: 1 2 3 4 5 6 7 8 9 10 11 12 13 14 15 16 17 18 19

000
FTUS41 KILN 162000 AAA
TAFLCK
TAF AMD
KLCK 162016Z 1620/1718 VRB03KT P6SM BKN035
     FM170000 VRB03KT P6SM SCT040
     FM170800 VRB03KT 4SM BR SKC
     FM171300 VRB03KT P6SM SCT015
     FM171500 23005KT P6SM BKN035=

USA.gov is the U.S. government's official web portal to all federal, state and local government web resources and services.